sensor_id;sensor_type;location;lat;lon;timestamp;temperature;humidity
65985;HTU21D;52748;51.112;5.880;2023-11-21T00:01:57;18.56;81.90
65985;HTU21D;52748;51.112;5.880;2023-11-21T00:04:24;18.57;81.78
65985;HTU21D;52748;51.112;5.880;2023-11-21T00:06:50;18.57;81.79
65985;HTU21D;52748;51.112;5.880;2023-11-21T00:09:16;18.56;81.72
65985;HTU21D;52748;51.112;5.880;2023-11-21T00:11:43;18.56;81.66
65985;HTU21D;52748;51.112;5.880;2023-11-21T00:14:11;18.57;81.51
65985;HTU21D;52748;51.112;5.880;2023-11-21T00:16:37;18.57;81.53
65985;HTU21D;52748;51.112;5.880;2023-11-21T00:19:02;18.57;81.59
65985;HTU21D;52748;51.112;5.880;2023-11-21T00:21:28;18.55;81.78
65985;HTU21D;52748;51.112;5.880;2023-11-21T00:23:54;18.53;81.80
65985;HTU21D;52748;51.112;5.880;2023-11-21T00:26:20;18.54;81.72
65985;HTU21D;52748;51.112;5.880;2023-11-21T00:28:54;18.54;81.60
65985;HTU21D;52748;51.112;5.880;2023-11-21T00:31:20;18.53;81.56
65985;HTU21D;52748;51.112;5.880;2023-11-21T00:33:46;18.54;81.46
65985;HTU21D;52748;51.112;5.880;2023-11-21T00:36:12;18.53;81.54
65985;HTU21D;52748;51.112;5.880;2023-11-21T00:38:38;18.55;81.46
65985;HTU21D;52748;51.112;5.880;2023-11-21T00:41:06;18.54;81.50
65985;HTU21D;52748;51.112;5.880;2023-11-21T00:43:32;18.53;81.49
65985;HTU21D;52748;51.112;5.880;2023-11-21T00:46:04;18.52;81.37
65985;HTU21D;52748;51.112;5.880;2023-11-21T00:48:30;18.54;81.28
65985;HTU21D;52748;51.112;5.880;2023-11-21T00:50:56;18.52;81.44
65985;HTU21D;52748;51.112;5.880;2023-11-21T00:53:22;18.52;81.43
65985;HTU21D;52748;51.112;5.880;2023-11-21T00:55:48;18.51;81.34
65985;HTU21D;52748;51.112;5.880;2023-11-21T00:58:13;18.53;81.24
65985;HTU21D;52748;51.112;5.880;2023-11-21T01:00:40;18.51;81.23
65985;HTU21D;52748;51.112;5.880;2023-11-21T01:03:06;18.51;81.42
65985;HTU21D;52748;51.112;5.880;2023-11-21T01:05:33;18.51;81.44
65985;HTU21D;52748;51.112;5.880;2023-11-21T01:08:00;18.50;81.26
65985;HTU21D;52748;51.112;5.880;2023-11-21T01:10:25;18.50;81.28
65985;HTU21D;52748;51.112;5.880;2023-11-21T01:12:51;18.51;81.23
65985;HTU21D;52748;51.112;5.880;2023-11-21T01:15:17;18.52;81.26
65985;HTU21D;52748;51.112;5.880;2023-11-21T01:17:43;18.49;81.47
65985;HTU21D;52748;51.112;5.880;2023-11-21T01:20:09;18.49;81.42
65985;HTU21D;52748;51.112;5.880;2023-11-21T01:22:39;18.49;81.36
65985;HTU21D;52748;51.112;5.880;2023-11-21T01:25:05;18.49;81.34
65985;HTU21D;52748;51.112;5.880;2023-11-21T01:27:33;18.49;81.27
65985;HTU21D;52748;51.112;5.880;2023-11-21T01:30:00;18.49;81.19
65985;HTU21D;52748;51.112;5.880;2023-11-21T01:32:26;18.50;81.10
65985;HTU21D;52748;51.112;5.880;2023-11-21T01:34:52;18.51;81.05
65985;HTU21D;52748;51.112;5.880;2023-11-21T01:37:19;18.49;80.98
65985;HTU21D;52748;51.112;5.880;2023-11-21T01:39:45;18.50;80.89
65985;HTU21D;52748;51.112;5.880;2023-11-21T01:42:12;18.50;80.91
65985;HTU21D;52748;51.112;5.880;2023-11-21T01:44:39;18.50;80.96
65985;HTU21D;52748;51.112;5.880;2023-11-21T01:47:06;18.49;80.94
65985;HTU21D;52748;51.112;5.880;2023-11-21T01:49:32;18.49;80.98
65985;HTU21D;52748;51.112;5.880;2023-11-21T01:51:59;18.48;81.00
65985;HTU21D;52748;51.112;5.880;2023-11-21T01:54:26;18.47;81.01
65985;HTU21D;52748;51.112;5.880;2023-11-21T01:56:52;18.47;80.91
65985;HTU21D;52748;51.112;5.880;2023-11-21T01:59:21;18.48;80.81
65985;HTU21D;52748;51.112;5.880;2023-11-21T02:01:50;18.47;80.79
65985;HTU21D;52748;51.112;5.880;2023-11-21T02:04:19;18.48;80.65
65985;HTU21D;52748;51.112;5.880;2023-11-21T02:06:46;18.47;80.78
65985;HTU21D;52748;51.112;5.880;2023-11-21T02:09:12;18.46;80.79
65985;HTU21D;52748;51.112;5.880;2023-11-21T02:11:40;18.44;80.72
65985;HTU21D;52748;51.112;5.880;2023-11-21T02:14:06;18.46;80.69
65985;HTU21D;52748;51.112;5.880;2023-11-21T02:16:35;18.46;80.67
65985;HTU21D;52748;51.112;5.880;2023-11-21T02:19:02;18.44;80.69
65985;HTU21D;52748;51.112;5.880;2023-11-21T02:21:31;18.44;80.64
65985;HTU21D;52748;51.112;5.880;2023-11-21T02:23:58;18.43;80.66
65985;HTU21D;52748;51.112;5.880;2023-11-21T02:26:24;18.44;80.65
65985;HTU21D;52748;51.112;5.880;2023-11-21T02:28:51;18.44;80.49
65985;HTU21D;52748;51.112;5.880;2023-11-21T02:31:18;18.47;80.51
65985;HTU21D;52748;51.112;5.880;2023-11-21T02:33:44;18.44;80.58
65985;HTU21D;52748;51.112;5.880;2023-11-21T02:36:10;18.43;80.74
65985;HTU21D;52748;51.112;5.880;2023-11-21T02:38:36;18.42;80.69
65985;HTU21D;52748;51.112;5.880;2023-11-21T02:41:01;18.43;80.58
65985;HTU21D;52748;51.112;5.880;2023-11-21T02:43:27;18.43;80.51
65985;HTU21D;52748;51.112;5.880;2023-11-21T02:45:53;18.42;80.48
65985;HTU21D;52748;51.112;5.880;2023-11-21T02:48:19;18.42;80.49
65985;HTU21D;52748;51.112;5.880;2023-11-21T02:50:44;18.42;80.48
65985;HTU21D;52748;51.112;5.880;2023-11-21T02:53:10;18.41;80.37
65985;HTU21D;52748;51.112;5.880;2023-11-21T02:55:36;18.42;80.38
65985;HTU21D;52748;51.112;5.880;2023-11-21T02:58:02;18.43;80.45
65985;HTU21D;52748;51.112;5.880;2023-11-21T03:00:31;18.41;80.49
65985;HTU21D;52748;51.112;5.880;2023-11-21T03:02:57;18.41;80.57
65985;HTU21D;52748;51.112;5.880;2023-11-21T03:05:25;18.39;80.65
65985;HTU21D;52748;51.112;5.880;2023-11-21T03:07:51;18.38;80.55
65985;HTU21D;52748;51.112;5.880;2023-11-21T03:10:17;18.38;80.45
65985;HTU21D;52748;51.112;5.880;2023-11-21T03:12:43;18.39;80.46
65985;HTU21D;52748;51.112;5.880;2023-11-21T03:15:10;18.39;80.39
65985;HTU21D;52748;51.112;5.880;2023-11-21T03:17:36;18.38;80.38
65985;HTU21D;52748;51.112;5.880;2023-11-21T03:20:03;18.39;80.33
65985;HTU21D;52748;51.112;5.880;2023-11-21T03:22:29;18.40;80.22
65985;HTU21D;52748;51.112;5.880;2023-11-21T03:24:55;18.40;80.17
65985;HTU21D;52748;51.112;5.880;2023-11-21T03:27:21;18.39;80.30
65985;HTU21D;52748;51.112;5.880;2023-11-21T03:29:48;18.38;80.33
65985;HTU21D;52748;51.112;5.880;2023-11-21T03:32:16;18.40;80.14
65985;HTU21D;52748;51.112;5.880;2023-11-21T03:34:56;18.39;80.16
65985;HTU21D;52748;51.112;5.880;2023-11-21T03:37:22;18.39;80.15
65985;HTU21D;52748;51.112;5.880;2023-11-21T03:39:48;18.37;80.39
65985;HTU21D;52748;51.112;5.880;2023-11-21T03:42:14;18.38;80.30
65985;HTU21D;52748;51.112;5.880;2023-11-21T03:44:40;18.37;80.26
65985;HTU21D;52748;51.112;5.880;2023-11-21T03:47:06;18.36;80.28
65985;HTU21D;52748;51.112;5.880;2023-11-21T03:49:33;18.37;80.15
65985;HTU21D;52748;51.112;5.880;2023-11-21T03:51:59;18.36;80.12
65985;HTU21D;52748;51.112;5.880;2023-11-21T03:54:24;18.36;80.17
65985;HTU21D;52748;51.112;5.880;2023-11-21T03:56:50;18.36;80.14
65985;HTU21D;52748;51.112;5.880;2023-11-21T03:59:17;18.36;80.10
65985;HTU21D;52748;51.112;5.880;2023-11-21T04:01:43;18.35;80.07
65985;HTU21D;52748;51.112;5.880;2023-11-21T04:04:09;18.36;80.02
65985;HTU21D;52748;51.112;5.880;2023-11-21T04:06:34;18.34;80.00
65985;HTU21D;52748;51.112;5.880;2023-11-21T04:09:01;18.36;79.90
65985;HTU21D;52748;51.112;5.880;2023-11-21T04:11:30;18.37;79.86
65985;HTU21D;52748;51.112;5.880;2023-11-21T04:13:55;18.36;79.89
65985;HTU21D;52748;51.112;5.880;2023-11-21T04:16:21;18.35;80.07
65985;HTU21D;52748;51.112;5.880;2023-11-21T04:18:48;18.35;80.05
65985;HTU21D;52748;51.112;5.880;2023-11-21T04:21:13;18.34;80.11
65985;HTU21D;52748;51.112;5.880;2023-11-21T04:23:39;18.34;80.04
65985;HTU21D;52748;51.112;5.880;2023-11-21T04:26:06;18.33;79.98
65985;HTU21D;52748;51.112;5.880;2023-11-21T04:28:32;18.35;79.82
65985;HTU21D;52748;51.112;5.880;2023-11-21T04:30:57;18.35;79.77
65985;HTU21D;52748;51.112;5.880;2023-11-21T04:33:23;18.34;79.91
65985;HTU21D;52748;51.112;5.880;2023-11-21T04:35:51;18.35;79.93
65985;HTU21D;52748;51.112;5.880;2023-11-21T04:38:17;18.33;80.01
65985;HTU21D;52748;51.112;5.880;2023-11-21T04:40:43;18.34;79.95
65985;HTU21D;52748;51.112;5.880;2023-11-21T04:43:08;18.33;79.85
65985;HTU21D;52748;51.112;5.880;2023-11-21T04:45:34;18.33;79.81
65985;HTU21D;52748;51.112;5.880;2023-11-21T04:48:00;18.33;79.81
65985;HTU21D;52748;51.112;5.880;2023-11-21T04:50:26;18.32;79.84
65985;HTU21D;52748;51.112;5.880;2023-11-21T04:52:53;18.32;79.84
65985;HTU21D;52748;51.112;5.880;2023-11-21T04:55:19;18.30;79.87
65985;HTU21D;52748;51.112;5.880;2023-11-21T04:57:45;18.30;79.83
65985;HTU21D;52748;51.112;5.880;2023-11-21T05:00:12;18.32;79.68
65985;HTU21D;52748;51.112;5.880;2023-11-21T05:02:40;18.30;79.89
65985;HTU21D;52748;51.112;5.880;2023-11-21T05:05:07;18.30;79.87
65985;HTU21D;52748;51.112;5.880;2023-11-21T05:07:33;18.30;79.87
65985;HTU21D;52748;51.112;5.880;2023-11-21T05:10:00;18.30;79.75
65985;HTU21D;52748;51.112;5.880;2023-11-21T05:12:31;18.32;79.70
65985;HTU21D;52748;51.112;5.880;2023-11-21T05:15:07;18.30;79.87
65985;HTU21D;52748;51.112;5.880;2023-11-21T05:17:37;18.30;79.92
65985;HTU21D;52748;51.112;5.880;2023-11-21T05:20:05;18.29;79.86
65985;HTU21D;52748;51.112;5.880;2023-11-21T05:22:34;18.28;79.84
65985;HTU21D;52748;51.112;5.880;2023-11-21T05:25:00;18.28;79.78
65985;HTU21D;52748;51.112;5.880;2023-11-21T05:27:26;18.29;79.73
65985;HTU21D;52748;51.112;5.880;2023-11-21T05:29:52;18.29;79.59
65985;HTU21D;52748;51.112;5.880;2023-11-21T05:32:18;18.30;79.63
65985;HTU21D;52748;51.112;5.880;2023-11-21T05:34:43;18.29;79.81
65985;HTU21D;52748;51.112;5.880;2023-11-21T05:37:09;18.27;79.86
65985;HTU21D;52748;51.112;5.880;2023-11-21T05:39:35;18.27;79.81
65985;HTU21D;52748;51.112;5.880;2023-11-21T05:42:01;18.28;79.83
65985;HTU21D;52748;51.112;5.880;2023-11-21T05:44:27;18.28;79.80
65985;HTU21D;52748;51.112;5.880;2023-11-21T05:46:53;18.28;79.69
65985;HTU21D;52748;51.112;5.880;2023-11-21T05:49:18;18.28;79.71
65985;HTU21D;52748;51.112;5.880;2023-11-21T05:51:47;18.27;79.67
65985;HTU21D;52748;51.112;5.880;2023-11-21T05:54:13;18.27;79.63
65985;HTU21D;52748;51.112;5.880;2023-11-21T05:56:39;18.27;79.62
65985;HTU21D;52748;51.112;5.880;2023-11-21T05:59:04;18.27;79.59
65985;HTU21D;52748;51.112;5.880;2023-11-21T06:01:32;18.28;79.59
65985;HTU21D;52748;51.112;5.880;2023-11-21T06:03:57;18.28;79.43
65985;HTU21D;52748;51.112;5.880;2023-11-21T06:06:24;18.27;79.61
65985;HTU21D;52748;51.112;5.880;2023-11-21T06:08:51;18.25;79.60
65985;HTU21D;52748;51.112;5.880;2023-11-21T06:11:17;18.27;79.57
65985;HTU21D;52748;51.112;5.880;2023-11-21T06:13:43;18.26;79.53
65985;HTU21D;52748;51.112;5.880;2023-11-21T06:16:09;18.26;79.49
65985;HTU21D;52748;51.112;5.880;2023-11-21T06:18:35;18.25;79.24
65985;HTU21D;52748;51.112;5.880;2023-11-21T06:21:01;18.24;78.79
65985;HTU21D;52748;51.112;5.880;2023-11-21T06:23:27;18.22;78.20
65985;HTU21D;52748;51.112;5.880;2023-11-21T06:25:52;18.18;78.63
65985;HTU21D;52748;51.112;5.880;2023-11-21T06:28:18;18.12;76.05
65985;HTU21D;52748;51.112;5.880;2023-11-21T06:30:44;18.04;72.57
65985;HTU21D;52748;51.112;5.880;2023-11-21T06:33:14;17.90;71.10
65985;HTU21D;52748;51.112;5.880;2023-11-21T06:35:40;17.75;70.29
65985;HTU21D;52748;51.112;5.880;2023-11-21T06:38:06;17.63;70.10
65985;HTU21D;52748;51.112;5.880;2023-11-21T06:40:31;17.50;70.46
65985;HTU21D;52748;51.112;5.880;2023-11-21T06:42:59;17.41;70.51
65985;HTU21D;52748;51.112;5.880;2023-11-21T06:45:25;17.26;70.89
65985;HTU21D;52748;51.112;5.880;2023-11-21T06:47:50;17.10;71.42
65985;HTU21D;52748;51.112;5.880;2023-11-21T06:50:19;16.94;71.32
65985;HTU21D;52748;51.112;5.880;2023-11-21T06:52:45;16.76;72.51
65985;HTU21D;52748;51.112;5.880;2023-11-21T06:55:11;16.69;76.12
65985;HTU21D;52748;51.112;5.880;2023-11-21T06:57:37;16.76;78.36
65985;HTU21D;52748;51.112;5.880;2023-11-21T07:00:04;16.87;79.22
65985;HTU21D;52748;51.112;5.880;2023-11-21T07:02:31;17.01;79.53
65985;HTU21D;52748;51.112;5.880;2023-11-21T07:04:56;17.10;80.05
65985;HTU21D;52748;51.112;5.880;2023-11-21T07:07:22;17.21;80.27
65985;HTU21D;52748;51.112;5.880;2023-11-21T07:09:48;17.31;80.35
65985;HTU21D;52748;51.112;5.880;2023-11-21T07:12:14;17.40;80.29
65985;HTU21D;52748;51.112;5.880;2023-11-21T07:14:40;17.47;80.32
65985;HTU21D;52748;51.112;5.880;2023-11-21T07:17:09;17.53;80.20
65985;HTU21D;52748;51.112;5.880;2023-11-21T07:19:34;17.60;80.16
65985;HTU21D;52748;51.112;5.880;2023-11-21T07:22:01;17.65;80.01
65985;HTU21D;52748;51.112;5.880;2023-11-21T07:24:27;17.72;79.90
65985;HTU21D;52748;51.112;5.880;2023-11-21T07:26:52;17.78;79.67
65985;HTU21D;52748;51.112;5.880;2023-11-21T07:29:24;17.80;79.74
65985;HTU21D;52748;51.112;5.880;2023-11-21T07:31:55;17.82;79.65
65985;HTU21D;52748;51.112;5.880;2023-11-21T07:34:21;17.87;79.52
65985;HTU21D;52748;51.112;5.880;2023-11-21T07:36:47;17.89;79.40
65985;HTU21D;52748;51.112;5.880;2023-11-21T07:39:13;17.92;79.33
65985;HTU21D;52748;51.112;5.880;2023-11-21T07:41:41;17.93;79.25
65985;HTU21D;52748;51.112;5.880;2023-11-21T07:44:15;17.96;79.14
65985;HTU21D;52748;51.112;5.880;2023-11-21T07:46:41;17.97;79.06
65985;HTU21D;52748;51.112;5.880;2023-11-21T07:49:07;17.98;79.02
65985;HTU21D;52748;51.112;5.880;2023-11-21T07:51:32;18.00;78.95
65985;HTU21D;52748;51.112;5.880;2023-11-21T07:53:59;18.02;78.87
65985;HTU21D;52748;51.112;5.880;2023-11-21T07:56:24;18.03;78.82
65985;HTU21D;52748;51.112;5.880;2023-11-21T07:58:50;18.05;78.72
65985;HTU21D;52748;51.112;5.880;2023-11-21T08:01:16;18.04;78.76
65985;HTU21D;52748;51.112;5.880;2023-11-21T08:03:42;18.05;78.74
65985;HTU21D;52748;51.112;5.880;2023-11-21T08:06:09;18.06;78.70
65985;HTU21D;52748;51.112;5.880;2023-11-21T08:08:35;18.06;78.66
65985;HTU21D;52748;51.112;5.880;2023-11-21T08:11:01;18.06;78.64
65985;HTU21D;52748;51.112;5.880;2023-11-21T08:13:29;18.06;78.56
65985;HTU21D;52748;51.112;5.880;2023-11-21T08:15:58;18.07;78.56
65985;HTU21D;52748;51.112;5.880;2023-11-21T08:18:28;18.07;78.54
65985;HTU21D;52748;51.112;5.880;2023-11-21T08:20:56;18.08;78.45
65985;HTU21D;52748;51.112;5.880;2023-11-21T08:23:22;18.10;78.39
65985;HTU21D;52748;51.112;5.880;2023-11-21T08:25:51;18.10;78.38
65985;HTU21D;52748;51.112;5.880;2023-11-21T08:28:19;18.09;78.41
65985;HTU21D;52748;51.112;5.880;2023-11-21T08:30:45;18.09;78.63
65985;HTU21D;52748;51.112;5.880;2023-11-21T08:33:11;18.09;78.56
65985;HTU21D;52748;51.112;5.880;2023-11-21T08:35:37;18.09;78.46
65985;HTU21D;52748;51.112;5.880;2023-11-21T08:38:04;18.09;78.51
65985;HTU21D;52748;51.112;5.880;2023-11-21T08:40:30;18.11;78.21
65985;HTU21D;52748;51.112;5.880;2023-11-21T08:42:56;18.10;78.36
65985;HTU21D;52748;51.112;5.880;2023-11-21T08:45:25;18.10;78.35
65985;HTU21D;52748;51.112;5.880;2023-11-21T08:47:53;18.09;78.31
65985;HTU21D;52748;51.112;5.880;2023-11-21T08:50:19;18.09;78.33
65985;HTU21D;52748;51.112;5.880;2023-11-21T08:52:45;18.10;78.33
65985;HTU21D;52748;51.112;5.880;2023-11-21T08:55:11;18.09;78.26
65985;HTU21D;52748;51.112;5.880;2023-11-21T08:57:39;18.09;78.34
65985;HTU21D;52748;51.112;5.880;2023-11-21T09:00:07;18.10;78.34
65985;HTU21D;52748;51.112;5.880;2023-11-21T09:02:37;18.08;78.34
65985;HTU21D;52748;51.112;5.880;2023-11-21T09:05:06;18.09;78.37
65985;HTU21D;52748;51.112;5.880;2023-11-21T09:07:33;18.11;78.32
65985;HTU21D;52748;51.112;5.880;2023-11-21T09:09:58;18.09;78.34
65985;HTU21D;52748;51.112;5.880;2023-11-21T09:12:24;18.07;77.18
65985;HTU21D;52748;51.112;5.880;2023-11-21T09:14:56;18.06;77.21
65985;HTU21D;52748;51.112;5.880;2023-11-21T09:17:21;18.02;77.76
65985;HTU21D;52748;51.112;5.880;2023-11-21T09:19:47;18.00;78.52
65985;HTU21D;52748;51.112;5.880;2023-11-21T09:22:17;18.00;79.12
65985;HTU21D;52748;51.112;5.880;2023-11-21T09:24:43;18.00;79.66
65985;HTU21D;52748;51.112;5.880;2023-11-21T09:27:09;18.03;79.69
65985;HTU21D;52748;51.112;5.880;2023-11-21T09:29:35;18.03;80.17
65985;HTU21D;52748;51.112;5.880;2023-11-21T09:32:02;18.02;80.56
65985;HTU21D;52748;51.112;5.880;2023-11-21T09:34:31;18.04;81.75
65985;HTU21D;52748;51.112;5.880;2023-11-21T09:36:57;18.05;81.93
65985;HTU21D;52748;51.112;5.880;2023-11-21T09:39:23;18.08;81.89
65985;HTU21D;52748;51.112;5.880;2023-11-21T09:41:52;18.09;82.16
65985;HTU21D;52748;51.112;5.880;2023-11-21T09:44:35;18.10;82.28
65985;HTU21D;52748;51.112;5.880;2023-11-21T09:47:02;18.10;82.33
65985;HTU21D;52748;51.112;5.880;2023-11-21T09:49:28;18.11;82.40
65985;HTU21D;52748;51.112;5.880;2023-11-21T09:51:58;18.14;82.42
65985;HTU21D;52748;51.112;5.880;2023-11-21T09:54:30;18.17;82.58
65985;HTU21D;52748;51.112;5.880;2023-11-21T09:57:00;18.17;82.75
65985;HTU21D;52748;51.112;5.880;2023-11-21T09:59:31;18.17;82.87
65985;HTU21D;52748;51.112;5.880;2023-11-21T10:01:58;18.15;83.16
65985;HTU21D;52748;51.112;5.880;2023-11-21T10:04:27;18.18;83.07
65985;HTU21D;52748;51.112;5.880;2023-11-21T10:06:54;18.18;83.23
65985;HTU21D;52748;51.112;5.880;2023-11-21T10:09:21;18.18;83.31
65985;HTU21D;52748;51.112;5.880;2023-11-21T10:11:47;18.19;83.39
65985;HTU21D;52748;51.112;5.880;2023-11-21T10:14:17;18.19;83.49
65985;HTU21D;52748;51.112;5.880;2023-11-21T10:16:46;18.20;83.57
65985;HTU21D;52748;51.112;5.880;2023-11-21T10:19:13;18.21;83.62
65985;HTU21D;52748;51.112;5.880;2023-11-21T10:21:42;18.21;83.71
65985;HTU21D;52748;51.112;5.880;2023-11-21T10:24:08;18.22;83.78
65985;HTU21D;52748;51.112;5.880;2023-11-21T10:26:34;18.23;83.81
65985;HTU21D;52748;51.112;5.880;2023-11-21T10:29:02;18.24;83.89
65985;HTU21D;52748;51.112;5.880;2023-11-21T10:31:32;18.23;84.07
65985;HTU21D;52748;51.112;5.880;2023-11-21T10:34:16;18.23;84.31
65985;HTU21D;52748;51.112;5.880;2023-11-21T10:36:42;18.22;84.35
65985;HTU21D;52748;51.112;5.880;2023-11-21T10:39:08;18.25;84.39
65985;HTU21D;52748;51.112;5.880;2023-11-21T10:41:35;18.23;84.51
65985;HTU21D;52748;51.112;5.880;2023-11-21T10:44:02;18.23;84.61
65985;HTU21D;52748;51.112;5.880;2023-11-21T10:46:34;18.23;84.62
65985;HTU21D;52748;51.112;5.880;2023-11-21T10:49:00;18.25;84.68
65985;HTU21D;52748;51.112;5.880;2023-11-21T10:51:27;18.25;84.71
65985;HTU21D;52748;51.112;5.880;2023-11-21T10:53:54;18.25;84.91
65985;HTU21D;52748;51.112;5.880;2023-11-21T10:56:23;18.23;85.23
65985;HTU21D;52748;51.112;5.880;2023-11-21T10:58:49;18.24;85.27
65985;HTU21D;52748;51.112;5.880;2023-11-21T11:01:19;18.25;85.41
65985;HTU21D;52748;51.112;5.880;2023-11-21T11:03:50;18.26;85.33
65985;HTU21D;52748;51.112;5.880;2023-11-21T11:06:21;18.25;85.43
65985;HTU21D;52748;51.112;5.880;2023-11-21T11:08:47;18.23;85.89
65985;HTU21D;52748;51.112;5.880;2023-11-21T11:11:14;18.24;85.61
65985;HTU21D;52748;51.112;5.880;2023-11-21T11:13:43;18.25;85.54
65985;HTU21D;52748;51.112;5.880;2023-11-21T11:16:12;18.24;85.46
65985;HTU21D;52748;51.112;5.880;2023-11-21T11:18:37;18.23;85.47
65985;HTU21D;52748;51.112;5.880;2023-11-21T11:21:27;18.23;85.51
65985;HTU21D;52748;51.112;5.880;2023-11-21T11:24:04;18.22;85.67
65985;HTU21D;52748;51.112;5.880;2023-11-21T11:34:43;18.22;85.09
65985;HTU21D;52748;51.112;5.880;2023-11-21T11:37:12;18.23;84.99
65985;HTU21D;52748;51.112;5.880;2023-11-21T11:39:42;18.23;84.96
65985;HTU21D;52748;51.112;5.880;2023-11-21T11:42:13;18.22;85.00
65985;HTU21D;52748;51.112;5.880;2023-11-21T11:47:23;18.22;84.90
65985;HTU21D;52748;51.112;5.880;2023-11-21T11:50:08;18.21;84.81
65985;HTU21D;52748;51.112;5.880;2023-11-21T11:52:47;18.21;84.69
65985;HTU21D;52748;51.112;5.880;2023-11-21T11:55:16;18.20;84.67
65985;HTU21D;52748;51.112;5.880;2023-11-21T11:57:47;18.22;84.64
65985;HTU21D;52748;51.112;5.880;2023-11-21T12:02:48;18.21;85.06
65985;HTU21D;52748;51.112;5.880;2023-11-21T12:05:16;18.22;85.04
65985;HTU21D;52748;51.112;5.880;2023-11-21T12:07:57;18.23;85.04
65985;HTU21D;52748;51.112;5.880;2023-11-21T12:10:25;18.23;84.93
65985;HTU21D;52748;51.112;5.880;2023-11-21T12:12:56;18.24;85.00
65985;HTU21D;52748;51.112;5.880;2023-11-21T12:15:23;18.25;84.80
65985;HTU21D;52748;51.112;5.880;2023-11-21T12:17:50;18.24;84.81
65985;HTU21D;52748;51.112;5.880;2023-11-21T12:20:19;18.24;84.96
65985;HTU21D;52748;51.112;5.880;2023-11-21T12:22:47;18.25;84.78
65985;HTU21D;52748;51.112;5.880;2023-11-21T12:25:17;18.24;84.81
65985;HTU21D;52748;51.112;5.880;2023-11-21T12:27:45;18.24;84.62
65985;HTU21D;52748;51.112;5.880;2023-11-21T12:30:12;18.25;84.64
65985;HTU21D;52748;51.112;5.880;2023-11-21T12:32:49;18.25;84.77
65985;HTU21D;52748;51.112;5.880;2023-11-21T12:35:18;18.25;84.60
65985;HTU21D;52748;51.112;5.880;2023-11-21T12:37:45;18.25;84.61
65985;HTU21D;52748;51.112;5.880;2023-11-21T12:40:13;18.24;84.78
65985;HTU21D;52748;51.112;5.880;2023-11-21T12:42:53;18.24;84.87
65985;HTU21D;52748;51.112;5.880;2023-11-21T12:45:27;18.23;84.85
65985;HTU21D;52748;51.112;5.880;2023-11-21T12:48:04;18.24;84.87
65985;HTU21D;52748;51.112;5.880;2023-11-21T12:50:34;18.25;84.89
65985;HTU21D;52748;51.112;5.880;2023-11-21T12:53:04;18.23;84.97
65985;HTU21D;52748;51.112;5.880;2023-11-21T12:55:32;18.24;84.90
65985;HTU21D;52748;51.112;5.880;2023-11-21T12:58:02;18.24;85.13
65985;HTU21D;52748;51.112;5.880;2023-11-21T13:00:52;18.24;85.06
65985;HTU21D;52748;51.112;5.880;2023-11-21T13:03:19;18.23;85.32
65985;HTU21D;52748;51.112;5.880;2023-11-21T13:05:51;18.24;85.23
65985;HTU21D;52748;51.112;5.880;2023-11-21T13:08:22;18.25;85.35
65985;HTU21D;52748;51.112;5.880;2023-11-21T13:10:53;18.25;85.37
65985;HTU21D;52748;51.112;5.880;2023-11-21T13:13:21;18.24;85.51
65985;HTU21D;52748;51.112;5.880;2023-11-21T13:15:52;18.23;85.52
65985;HTU21D;52748;51.112;5.880;2023-11-21T13:18:18;18.24;85.46
65985;HTU21D;52748;51.112;5.880;2023-11-21T13:20:47;18.25;85.45
65985;HTU21D;52748;51.112;5.880;2023-11-21T13:23:12;18.24;85.63
65985;HTU21D;52748;51.112;5.880;2023-11-21T13:25:39;18.22;85.61
65985;HTU21D;52748;51.112;5.880;2023-11-21T13:28:07;18.23;85.57
65985;HTU21D;52748;51.112;5.880;2023-11-21T13:30:32;18.23;85.60
65985;HTU21D;52748;51.112;5.880;2023-11-21T13:33:00;18.22;85.82
65985;HTU21D;52748;51.112;5.880;2023-11-21T13:35:34;18.22;85.74
65985;HTU21D;52748;51.112;5.880;2023-11-21T13:38:15;18.21;85.62
65985;HTU21D;52748;51.112;5.880;2023-11-21T13:40:54;18.22;85.51
65985;HTU21D;52748;51.112;5.880;2023-11-21T13:43:22;18.22;85.49
65985;HTU21D;52748;51.112;5.880;2023-11-21T13:45:50;18.22;85.65
65985;HTU21D;52748;51.112;5.880;2023-11-21T13:48:29;18.21;85.67
65985;HTU21D;52748;51.112;5.880;2023-11-21T13:51:06;18.21;85.63
65985;HTU21D;52748;51.112;5.880;2023-11-21T13:53:47;18.21;85.61
65985;HTU21D;52748;51.112;5.880;2023-11-21T13:56:18;18.22;85.60
65985;HTU21D;52748;51.112;5.880;2023-11-21T13:58:52;18.22;85.61
65985;HTU21D;52748;51.112;5.880;2023-11-21T14:01:21;18.22;85.71
65985;HTU21D;52748;51.112;5.880;2023-11-21T14:03:50;18.22;85.71
65985;HTU21D;52748;51.112;5.880;2023-11-21T14:06:22;18.23;85.61
65985;HTU21D;52748;51.112;5.880;2023-11-21T14:08:54;18.22;85.66
65985;HTU21D;52748;51.112;5.880;2023-11-21T14:11:22;18.24;85.71
65985;HTU21D;52748;51.112;5.880;2023-11-21T14:13:48;18.22;85.75
65985;HTU21D;52748;51.112;5.880;2023-11-21T14:16:15;18.22;85.88
65985;HTU21D;52748;51.112;5.880;2023-11-21T14:18:43;18.23;85.73
65985;HTU21D;52748;51.112;5.880;2023-11-21T14:21:20;18.22;85.74
65985;HTU21D;52748;51.112;5.880;2023-11-21T14:23:47;18.22;85.82
65985;HTU21D;52748;51.112;5.880;2023-11-21T14:26:14;18.22;85.86
65985;HTU21D;52748;51.112;5.880;2023-11-21T14:28:41;18.20;85.85
65985;HTU21D;52748;51.112;5.880;2023-11-21T14:31:07;18.22;85.73
65985;HTU21D;52748;51.112;5.880;2023-11-21T14:33:34;18.23;85.55
65985;HTU21D;52748;51.112;5.880;2023-11-21T14:36:00;18.22;85.58
65985;HTU21D;52748;51.112;5.880;2023-11-21T14:38:26;18.22;85.71
65985;HTU21D;52748;51.112;5.880;2023-11-21T14:40:51;18.22;85.61
65985;HTU21D;52748;51.112;5.880;2023-11-21T14:43:18;18.23;85.44
65985;HTU21D;52748;51.112;5.880;2023-11-21T14:45:45;18.23;85.45
65985;HTU21D;52748;51.112;5.880;2023-11-21T14:48:11;18.22;85.55
65985;HTU21D;52748;51.112;5.880;2023-11-21T14:50:52;18.23;85.42
65985;HTU21D;52748;51.112;5.880;2023-11-21T14:53:37;18.21;85.61
65985;HTU21D;52748;51.112;5.880;2023-11-21T14:56:20;18.22;85.60
65985;HTU21D;52748;51.112;5.880;2023-11-21T14:58:53;18.19;85.56
65985;HTU21D;52748;51.112;5.880;2023-11-21T15:01:20;18.21;85.49
65985;HTU21D;52748;51.112;5.880;2023-11-21T15:03:52;18.22;85.56
65985;HTU21D;52748;51.112;5.880;2023-11-21T15:06:19;18.22;85.49
65985;HTU21D;52748;51.112;5.880;2023-11-21T15:08:52;18.23;85.35
65985;HTU21D;52748;51.112;5.880;2023-11-21T15:11:33;18.24;85.48
65985;HTU21D;52748;51.112;5.880;2023-11-21T15:13:59;18.22;85.57
65985;HTU21D;52748;51.112;5.880;2023-11-21T15:16:26;18.21;85.55
65985;HTU21D;52748;51.112;5.880;2023-11-21T15:18:52;18.22;85.52
65985;HTU21D;52748;51.112;5.880;2023-11-21T15:21:21;18.20;83.85
65985;HTU21D;52748;51.112;5.880;2023-11-21T15:23:50;18.21;84.77
65985;HTU21D;52748;51.112;5.880;2023-11-21T15:26:17;18.19;85.35
65985;HTU21D;52748;51.112;5.880;2023-11-21T15:28:42;18.19;85.74
65985;HTU21D;52748;51.112;5.880;2023-11-21T15:31:08;18.20;86.05
65985;HTU21D;52748;51.112;5.880;2023-11-21T15:33:35;18.20;86.38